sensor_id;sensor_type;location;lat;lon;timestamp;P1;P2;P0
64627;PMS5003;68467;50.960;0.314;2023-12-07T00:01:57;13;11;
64627;PMS5003;68467;50.960;0.314;2023-12-07T00:04:24;11;11;
64627;PMS5003;68467;50.960;0.314;2023-12-07T00:06:52;11;11;
64627;PMS5003;68467;50.960;0.314;2023-12-07T00:09:19;12;11;
64627;PMS5003;68467;50.960;0.314;2023-12-07T00:11:46;12;11;
64627;PMS5003;68467;50.960;0.314;2023-12-07T00:14:13;13;12;
64627;PMS5003;68467;50.960;0.314;2023-12-07T00:16:41;12;11;
64627;PMS5003;68467;50.960;0.314;2023-12-07T00:19:08;10;10;
64627;PMS5003;68467;50.960;0.314;2023-12-07T00:21:36;11;10;
64627;PMS5003;68467;50.960;0.314;2023-12-07T00:24:04;13;11;
64627;PMS5003;68467;50.960;0.314;2023-12-07T00:26:31;11;11;
64627;PMS5003;68467;50.960;0.314;2023-12-07T00:28:58;10;10;
64627;PMS5003;68467;50.960;0.314;2023-12-07T00:31:26;13;12;
64627;PMS5003;68467;50.960;0.314;2023-12-07T00:33:53;13;13;
64627;PMS5003;68467;50.960;0.314;2023-12-07T00:36:21;15;13;
64627;PMS5003;68467;50.960;0.314;2023-12-07T00:38:49;13;12;
64627;PMS5003;68467;50.960;0.314;2023-12-07T00:41:16;9;8;
64627;PMS5003;68467;50.960;0.314;2023-12-07T00:43:44;14;12;
64627;PMS5003;68467;50.960;0.314;2023-12-07T00:46:11;11;11;
64627;PMS5003;68467;50.960;0.314;2023-12-07T00:48:39;10;10;
64627;PMS5003;68467;50.960;0.314;2023-12-07T00:51:06;11;10;
64627;PMS5003;68467;50.960;0.314;2023-12-07T00:53:34;10;9;
64627;PMS5003;68467;50.960;0.314;2023-12-07T00:56:02;12;10;
64627;PMS5003;68467;50.960;0.314;2023-12-07T00:58:30;8;8;
64627;PMS5003;68467;50.960;0.314;2023-12-07T01:00:58;11;11;
64627;PMS5003;68467;50.960;0.314;2023-12-07T01:03:25;12;12;
64627;PMS5003;68467;50.960;0.314;2023-12-07T01:05:52;15;12;
64627;PMS5003;68467;50.960;0.314;2023-12-07T01:08:19;13;13;
64627;PMS5003;68467;50.960;0.314;2023-12-07T01:10:46;12;12;
64627;PMS5003;68467;50.960;0.314;2023-12-07T01:13:13;13;13;
64627;PMS5003;68467;50.960;0.314;2023-12-07T01:15:41;13;12;
64627;PMS5003;68467;50.960;0.314;2023-12-07T01:18:08;14;14;
64627;PMS5003;68467;50.960;0.314;2023-12-07T01:20:36;16;16;
64627;PMS5003;68467;50.960;0.314;2023-12-07T01:23:04;18;15;
64627;PMS5003;68467;50.960;0.314;2023-12-07T01:25:31;13;13;
64627;PMS5003;68467;50.960;0.314;2023-12-07T01:27:59;14;14;
64627;PMS5003;68467;50.960;0.314;2023-12-07T01:30:28;12;12;
64627;PMS5003;68467;50.960;0.314;2023-12-07T01:32:56;13;13;
64627;PMS5003;68467;50.960;0.314;2023-12-07T01:35:23;14;13;
64627;PMS5003;68467;50.960;0.314;2023-12-07T01:37:51;13;13;
64627;PMS5003;68467;50.960;0.314;2023-12-07T01:40:18;12;12;
64627;PMS5003;68467;50.960;0.314;2023-12-07T01:42:53;12;12;
64627;PMS5003;68467;50.960;0.314;2023-12-07T01:45:20;13;13;
64627;PMS5003;68467;50.960;0.314;2023-12-07T01:47:49;10;10;
64627;PMS5003;68467;50.960;0.314;2023-12-07T01:50:18;10;9;
64627;PMS5003;68467;50.960;0.314;2023-12-07T01:52:48;12;12;
64627;PMS5003;68467;50.960;0.314;2023-12-07T01:55:20;11;11;
64627;PMS5003;68467;50.960;0.314;2023-12-07T01:57:49;10;10;
64627;PMS5003;68467;50.960;0.314;2023-12-07T02:00:17;9;9;
64627;PMS5003;68467;50.960;0.314;2023-12-07T02:02:46;10;9;
64627;PMS5003;68467;50.960;0.314;2023-12-07T02:05:14;10;9;
64627;PMS5003;68467;50.960;0.314;2023-12-07T02:07:43;10;10;
64627;PMS5003;68467;50.960;0.314;2023-12-07T02:10:10;10;10;
64627;PMS5003;68467;50.960;0.314;2023-12-07T02:12:38;8;8;
64627;PMS5003;68467;50.960;0.314;2023-12-07T02:15:06;9;9;
64627;PMS5003;68467;50.960;0.314;2023-12-07T02:17:35;11;10;
64627;PMS5003;68467;50.960;0.314;2023-12-07T02:20:11;10;10;
64627;PMS5003;68467;50.960;0.314;2023-12-07T02:22:47;10;9;
64627;PMS5003;68467;50.960;0.314;2023-12-07T02:25:19;9;9;
64627;PMS5003;68467;50.960;0.314;2023-12-07T02:27:52;10;10;
64627;PMS5003;68467;50.960;0.314;2023-12-07T02:30:19;11;10;
64627;PMS5003;68467;50.960;0.314;2023-12-07T02:32:48;9;9;
64627;PMS5003;68467;50.960;0.314;2023-12-07T02:35:16;12;11;
64627;PMS5003;68467;50.960;0.314;2023-12-07T02:37:44;9;9;
64627;PMS5003;68467;50.960;0.314;2023-12-07T02:40:15;9;9;
64627;PMS5003;68467;50.960;0.314;2023-12-07T02:42:45;9;9;
64627;PMS5003;68467;50.960;0.314;2023-12-07T02:45:14;8;8;
64627;PMS5003;68467;50.960;0.314;2023-12-07T02:47:42;10;9;
64627;PMS5003;68467;50.960;0.314;2023-12-07T02:50:09;9;9;
64627;PMS5003;68467;50.960;0.314;2023-12-07T02:52:36;9;9;
64627;PMS5003;68467;50.960;0.314;2023-12-07T02:55:04;8;8;
64627;PMS5003;68467;50.960;0.314;2023-12-07T02:57:32;9;8;
64627;PMS5003;68467;50.960;0.314;2023-12-07T02:59:59;8;7;
64627;PMS5003;68467;50.960;0.314;2023-12-07T03:02:26;7;7;
64627;PMS5003;68467;50.960;0.314;2023-12-07T03:04:53;10;10;
64627;PMS5003;68467;50.960;0.314;2023-12-07T03:07:21;9;9;
64627;PMS5003;68467;50.960;0.314;2023-12-07T03:09:48;8;8;
64627;PMS5003;68467;50.960;0.314;2023-12-07T03:12:15;8;6;
64627;PMS5003;68467;50.960;0.314;2023-12-07T03:14:42;7;7;
64627;PMS5003;68467;50.960;0.314;2023-12-07T03:17:10;8;7;
64627;PMS5003;68467;50.960;0.314;2023-12-07T03:19:37;9;8;
64627;PMS5003;68467;50.960;0.314;2023-12-07T03:22:05;7;7;
64627;PMS5003;68467;50.960;0.314;2023-12-07T03:24:33;8;8;
64627;PMS5003;68467;50.960;0.314;2023-12-07T03:27:01;8;7;
64627;PMS5003;68467;50.960;0.314;2023-12-07T03:29:29;6;6;
64627;PMS5003;68467;50.960;0.314;2023-12-07T03:31:56;8;8;
64627;PMS5003;68467;50.960;0.314;2023-12-07T03:34:24;9;8;
64627;PMS5003;68467;50.960;0.314;2023-12-07T03:36:52;8;8;
64627;PMS5003;68467;50.960;0.314;2023-12-07T03:39:19;8;8;
64627;PMS5003;68467;50.960;0.314;2023-12-07T03:41:46;9;9;
64627;PMS5003;68467;50.960;0.314;2023-12-07T03:44:13;9;9;
64627;PMS5003;68467;50.960;0.314;2023-12-07T03:46:41;10;8;
64627;PMS5003;68467;50.960;0.314;2023-12-07T03:49:07;8;8;
64627;PMS5003;68467;50.960;0.314;2023-12-07T03:51:35;11;10;
64627;PMS5003;68467;50.960;0.314;2023-12-07T03:54:02;11;9;
64627;PMS5003;68467;50.960;0.314;2023-12-07T03:56:29;10;10;
64627;PMS5003;68467;50.960;0.314;2023-12-07T03:58:57;12;11;
64627;PMS5003;68467;50.960;0.314;2023-12-07T04:01:25;11;10;
64627;PMS5003;68467;50.960;0.314;2023-12-07T04:03:53;11;11;
64627;PMS5003;68467;50.960;0.314;2023-12-07T04:06:21;15;14;
64627;PMS5003;68467;50.960;0.314;2023-12-07T04:08:49;15;13;
64627;PMS5003;68467;50.960;0.314;2023-12-07T04:11:17;15;13;
64627;PMS5003;68467;50.960;0.314;2023-12-07T04:13:44;12;12;
64627;PMS5003;68467;50.960;0.314;2023-12-07T04:16:13;14;11;
64627;PMS5003;68467;50.960;0.314;2023-12-07T04:18:40;15;14;
64627;PMS5003;68467;50.960;0.314;2023-12-07T04:21:07;15;14;
64627;PMS5003;68467;50.960;0.314;2023-12-07T04:23:34;16;13;
64627;PMS5003;68467;50.960;0.314;2023-12-07T04:26:02;14;13;
64627;PMS5003;68467;50.960;0.314;2023-12-07T04:28:29;14;14;
64627;PMS5003;68467;50.960;0.314;2023-12-07T04:30:56;16;16;
64627;PMS5003;68467;50.960;0.314;2023-12-07T04:33:24;18;18;
64627;PMS5003;68467;50.960;0.314;2023-12-07T04:35:51;18;17;
64627;PMS5003;68467;50.960;0.314;2023-12-07T04:38:18;18;17;
64627;PMS5003;68467;50.960;0.314;2023-12-07T04:40:45;16;15;
64627;PMS5003;68467;50.960;0.314;2023-12-07T04:43:12;23;21;
64627;PMS5003;68467;50.960;0.314;2023-12-07T04:45:39;17;17;
64627;PMS5003;68467;50.960;0.314;2023-12-07T04:48:06;13;13;
64627;PMS5003;68467;50.960;0.314;2023-12-07T04:50:34;18;16;
64627;PMS5003;68467;50.960;0.314;2023-12-07T04:53:01;20;18;
64627;PMS5003;68467;50.960;0.314;2023-12-07T04:55:28;19;16;
64627;PMS5003;68467;50.960;0.314;2023-12-07T04:57:55;16;16;
64627;PMS5003;68467;50.960;0.314;2023-12-07T05:00:22;17;17;
64627;PMS5003;68467;50.960;0.314;2023-12-07T05:02:49;18;18;
64627;PMS5003;68467;50.960;0.314;2023-12-07T05:05:17;22;21;
64627;PMS5003;68467;50.960;0.314;2023-12-07T05:07:44;21;20;
64627;PMS5003;68467;50.960;0.314;2023-12-07T05:10:11;21;20;
64627;PMS5003;68467;50.960;0.314;2023-12-07T05:12:38;20;20;
64627;PMS5003;68467;50.960;0.314;2023-12-07T05:15:06;21;20;
64627;PMS5003;68467;50.960;0.314;2023-12-07T05:17:34;22;22;
64627;PMS5003;68467;50.960;0.314;2023-12-07T05:20:01;25;23;
64627;PMS5003;68467;50.960;0.314;2023-12-07T05:22:29;29;27;
64627;PMS5003;68467;50.960;0.314;2023-12-07T05:24:56;28;26;
64627;PMS5003;68467;50.960;0.314;2023-12-07T05:27:23;29;28;
64627;PMS5003;68467;50.960;0.314;2023-12-07T05:29:51;28;26;
64627;PMS5003;68467;50.960;0.314;2023-12-07T05:32:17;26;25;
64627;PMS5003;68467;50.960;0.314;2023-12-07T05:34:45;29;27;
64627;PMS5003;68467;50.960;0.314;2023-12-07T05:37:12;30;26;
64627;PMS5003;68467;50.960;0.314;2023-12-07T05:39:41;24;23;
64627;PMS5003;68467;50.960;0.314;2023-12-07T05:42:08;24;24;
64627;PMS5003;68467;50.960;0.314;2023-12-07T05:44:35;23;22;
64627;PMS5003;68467;50.960;0.314;2023-12-07T05:47:03;26;25;
64627;PMS5003;68467;50.960;0.314;2023-12-07T05:49:30;27;26;
64627;PMS5003;68467;50.960;0.314;2023-12-07T05:51:57;23;22;
64627;PMS5003;68467;50.960;0.314;2023-12-07T05:54:24;25;24;
64627;PMS5003;68467;50.960;0.314;2023-12-07T05:56:52;21;21;
64627;PMS5003;68467;50.960;0.314;2023-12-07T05:59:19;22;21;
64627;PMS5003;68467;50.960;0.314;2023-12-07T06:01:46;24;24;
64627;PMS5003;68467;50.960;0.314;2023-12-07T06:04:14;22;22;
64627;PMS5003;68467;50.960;0.314;2023-12-07T06:06:41;23;22;
64627;PMS5003;68467;50.960;0.314;2023-12-07T06:09:08;22;21;
64627;PMS5003;68467;50.960;0.314;2023-12-07T06:11:35;21;20;
64627;PMS5003;68467;50.960;0.314;2023-12-07T06:14:02;18;18;
64627;PMS5003;68467;50.960;0.314;2023-12-07T06:16:29;19;19;
64627;PMS5003;68467;50.960;0.314;2023-12-07T06:18:56;21;20;
64627;PMS5003;68467;50.960;0.314;2023-12-07T06:21:24;19;18;
64627;PMS5003;68467;50.960;0.314;2023-12-07T06:23:51;20;20;
64627;PMS5003;68467;50.960;0.314;2023-12-07T06:26:18;24;22;
64627;PMS5003;68467;50.960;0.314;2023-12-07T06:28:45;25;24;
64627;PMS5003;68467;50.960;0.314;2023-12-07T06:31:13;21;18;
64627;PMS5003;68467;50.960;0.314;2023-12-07T06:33:41;20;19;
64627;PMS5003;68467;50.960;0.314;2023-12-07T06:36:08;20;19;
64627;PMS5003;68467;50.960;0.314;2023-12-07T06:38:35;23;22;
64627;PMS5003;68467;50.960;0.314;2023-12-07T06:41:02;20;18;
64627;PMS5003;68467;50.960;0.314;2023-12-07T06:43:29;21;21;
64627;PMS5003;68467;50.960;0.314;2023-12-07T06:45:57;19;17;
64627;PMS5003;68467;50.960;0.314;2023-12-07T06:48:24;19;18;
64627;PMS5003;68467;50.960;0.314;2023-12-07T06:50:52;21;20;
64627;PMS5003;68467;50.960;0.314;2023-12-07T06:53:19;21;20;
64627;PMS5003;68467;50.960;0.314;2023-12-07T06:55:46;17;15;
64627;PMS5003;68467;50.960;0.314;2023-12-07T06:58:13;19;18;
64627;PMS5003;68467;50.960;0.314;2023-12-07T07:00:40;15;13;
64627;PMS5003;68467;50.960;0.314;2023-12-07T07:03:07;18;18;
64627;PMS5003;68467;50.960;0.314;2023-12-07T07:05:34;17;17;
64627;PMS5003;68467;50.960;0.314;2023-12-07T07:08:01;20;19;
64627;PMS5003;68467;50.960;0.314;2023-12-07T07:10:29;20;17;
64627;PMS5003;68467;50.960;0.314;2023-12-07T07:12:59;14;13;
64627;PMS5003;68467;50.960;0.314;2023-12-07T07:15:26;17;13;
64627;PMS5003;68467;50.960;0.314;2023-12-07T07:17:54;14;13;
64627;PMS5003;68467;50.960;0.314;2023-12-07T07:20:21;20;19;
64627;PMS5003;68467;50.960;0.314;2023-12-07T07:22:47;15;14;
64627;PMS5003;68467;50.960;0.314;2023-12-07T07:25:15;15;14;
64627;PMS5003;68467;50.960;0.314;2023-12-07T07:27:42;18;18;
64627;PMS5003;68467;50.960;0.314;2023-12-07T07:30:10;14;13;
64627;PMS5003;68467;50.960;0.314;2023-12-07T07:32:38;14;14;
64627;PMS5003;68467;50.960;0.314;2023-12-07T07:35:05;13;13;
64627;PMS5003;68467;50.960;0.314;2023-12-07T07:37:33;13;13;
64627;PMS5003;68467;50.960;0.314;2023-12-07T07:40:01;20;17;
64627;PMS5003;68467;50.960;0.314;2023-12-07T07:42:29;14;13;
64627;PMS5003;68467;50.960;0.314;2023-12-07T07:44:56;15;14;
64627;PMS5003;68467;50.960;0.314;2023-12-07T07:47:23;12;12;
64627;PMS5003;68467;50.960;0.314;2023-12-07T07:49:50;14;14;
64627;PMS5003;68467;50.960;0.314;2023-12-07T07:52:18;12;12;
64627;PMS5003;68467;50.960;0.314;2023-12-07T07:54:45;13;12;
64627;PMS5003;68467;50.960;0.314;2023-12-07T07:57:13;15;15;
64627;PMS5003;68467;50.960;0.314;2023-12-07T07:59:40;12;10;
64627;PMS5003;68467;50.960;0.314;2023-12-07T08:02:07;14;13;
64627;PMS5003;68467;50.960;0.314;2023-12-07T08:04:35;13;13;
64627;PMS5003;68467;50.960;0.314;2023-12-07T08:07:02;13;13;
64627;PMS5003;68467;50.960;0.314;2023-12-07T08:09:30;14;13;
64627;PMS5003;68467;50.960;0.314;2023-12-07T08:11:57;13;11;
64627;PMS5003;68467;50.960;0.314;2023-12-07T08:14:24;12;12;
64627;PMS5003;68467;50.960;0.314;2023-12-07T08:16:51;14;14;
64627;PMS5003;68467;50.960;0.314;2023-12-07T08:19:18;13;13;
64627;PMS5003;68467;50.960;0.314;2023-12-07T08:21:46;17;14;
64627;PMS5003;68467;50.960;0.314;2023-12-07T08:24:13;13;13;
64627;PMS5003;68467;50.960;0.314;2023-12-07T08:26:39;12;12;
64627;PMS5003;68467;50.960;0.314;2023-12-07T08:29:07;10;10;
64627;PMS5003;68467;50.960;0.314;2023-12-07T08:31:34;14;12;
64627;PMS5003;68467;50.960;0.314;2023-12-07T08:34:01;14;14;
64627;PMS5003;68467;50.960;0.314;2023-12-07T08:36:28;14;13;
64627;PMS5003;68467;50.960;0.314;2023-12-07T08:38:55;12;12;
64627;PMS5003;68467;50.960;0.314;2023-12-07T08:41:23;18;18;
64627;PMS5003;68467;50.960;0.314;2023-12-07T08:43:51;15;14;
64627;PMS5003;68467;50.960;0.314;2023-12-07T08:46:18;14;13;
64627;PMS5003;68467;50.960;0.314;2023-12-07T08:48:45;16;16;
64627;PMS5003;68467;50.960;0.314;2023-12-07T08:51:12;13;12;
64627;PMS5003;68467;50.960;0.314;2023-12-07T08:53:41;13;13;
64627;PMS5003;68467;50.960;0.314;2023-12-07T08:56:09;14;14;
64627;PMS5003;68467;50.960;0.314;2023-12-07T08:58:37;11;10;
64627;PMS5003;68467;50.960;0.314;2023-12-07T09:01:04;14;13;
64627;PMS5003;68467;50.960;0.314;2023-12-07T09:03:32;14;13;
64627;PMS5003;68467;50.960;0.314;2023-12-07T09:05:59;14;14;
64627;PMS5003;68467;50.960;0.314;2023-12-07T09:08:27;11;11;
64627;PMS5003;68467;50.960;0.314;2023-12-07T09:10:54;14;13;
64627;PMS5003;68467;50.960;0.314;2023-12-07T09:13:22;13;13;
64627;PMS5003;68467;50.960;0.314;2023-12-07T09:15:49;11;11;
64627;PMS5003;68467;50.960;0.314;2023-12-07T09:18:16;14;13;
64627;PMS5003;68467;50.960;0.314;2023-12-07T09:20:44;13;13;
64627;PMS5003;68467;50.960;0.314;2023-12-07T09:23:11;13;13;
64627;PMS5003;68467;50.960;0.314;2023-12-07T09:25:39;16;14;
64627;PMS5003;68467;50.960;0.314;2023-12-07T09:28:06;13;12;
64627;PMS5003;68467;50.960;0.314;2023-12-07T09:30:34;11;11;
64627;PMS5003;68467;50.960;0.314;2023-12-07T09:33:01;14;12;
64627;PMS5003;68467;50.960;0.314;2023-12-07T09:35:28;11;9;
64627;PMS5003;68467;50.960;0.314;2023-12-07T09:37:55;9;9;
64627;PMS5003;68467;50.960;0.314;2023-12-07T09:40:23;12;11;
64627;PMS5003;68467;50.960;0.314;2023-12-07T09:42:50;10;10;
64627;PMS5003;68467;50.960;0.314;2023-12-07T09:45:19;11;11;
64627;PMS5003;68467;50.960;0.314;2023-12-07T09:47:47;10;10;
64627;PMS5003;68467;50.960;0.314;2023-12-07T09:50:16;10;10;
64627;PMS5003;68467;50.960;0.314;2023-12-07T09:52:44;10;10;
64627;PMS5003;68467;50.960;0.314;2023-12-07T09:55:11;11;11;
64627;PMS5003;68467;50.960;0.314;2023-12-07T09:57:39;10;10;
64627;PMS5003;68467;50.960;0.314;2023-12-07T10:00:06;12;11;
64627;PMS5003;68467;50.960;0.314;2023-12-07T10:02:36;12;11;
64627;PMS5003;68467;50.960;0.314;2023-12-07T10:05:04;11;11;
64627;PMS5003;68467;50.960;0.314;2023-12-07T10:07:32;11;11;
64627;PMS5003;68467;50.960;0.314;2023-12-07T10:10:02;12;12;
64627;PMS5003;68467;50.960;0.314;2023-12-07T10:12:29;11;11;
64627;PMS5003;68467;50.960;0.314;2023-12-07T10:14:57;13;11;
64627;PMS5003;68467;50.960;0.314;2023-12-07T10:17:24;10;9;
64627;PMS5003;68467;50.960;0.314;2023-12-07T10:20:06;11;10;
64627;PMS5003;68467;50.960;0.314;2023-12-07T10:22:34;11;11;
64627;PMS5003;68467;50.960;0.314;2023-12-07T10:25:01;11;11;
64627;PMS5003;68467;50.960;0.314;2023-12-07T10:27:28;12;12;
64627;PMS5003;68467;50.960;0.314;2023-12-07T10:29:58;12;11;
64627;PMS5003;68467;50.960;0.314;2023-12-07T10:32:25;11;10;
64627;PMS5003;68467;50.960;0.314;2023-12-07T10:34:52;12;11;
64627;PMS5003;68467;50.960;0.314;2023-12-07T10:37:19;10;10;
64627;PMS5003;68467;50.960;0.314;2023-12-07T10:39:46;13;12;
64627;PMS5003;68467;50.960;0.314;2023-12-07T10:42:15;11;10;
64627;PMS5003;68467;50.960;0.314;2023-12-07T10:44:44;11;11;
64627;PMS5003;68467;50.960;0.314;2023-12-07T10:47:16;12;11;
64627;PMS5003;68467;50.960;0.314;2023-12-07T10:49:44;12;11;
64627;PMS5003;68467;50.960;0.314;2023-12-07T10:52:19;14;13;
64627;PMS5003;68467;50.960;0.314;2023-12-07T10:54:53;10;9;
64627;PMS5003;68467;50.960;0.314;2023-12-07T10:57:26;14;14;
64627;PMS5003;68467;50.960;0.314;2023-12-07T10:59:55;14;14;
64627;PMS5003;68467;50.960;0.314;2023-12-07T11:02:26;12;12;
64627;PMS5003;68467;50.960;0.314;2023-12-07T11:04:54;10;10;
64627;PMS5003;68467;50.960;0.314;2023-12-07T11:07:24;12;11;
64627;PMS5003;68467;50.960;0.314;2023-12-07T11:09:57;13;13;
64627;PMS5003;68467;50.960;0.314;2023-12-07T11:12:31;10;10;
64627;PMS5003;68467;50.960;0.314;2023-12-07T11:15:05;10;10;
64627;PMS5003;68467;50.960;0.314;2023-12-07T11:17:47;16;13;
64627;PMS5003;68467;50.960;0.314;2023-12-07T11:20:18;10;10;
64627;PMS5003;68467;50.960;0.314;2023-12-07T11:22:47;11;11;
64627;PMS5003;68467;50.960;0.314;2023-12-07T11:25:15;9;9;
64627;PMS5003;68467;50.960;0.314;2023-12-07T11:27:44;11;10;
64627;PMS5003;68467;50.960;0.314;2023-12-07T11:30:12;11;11;
64627;PMS5003;68467;50.960;0.314;2023-12-07T11:32:42;14;13;
64627;PMS5003;68467;50.960;0.314;2023-12-07T11:35:12;11;11;
64627;PMS5003;68467;50.960;0.314;2023-12-07T11:38:11;10;10;
64627;PMS5003;68467;50.960;0.314;2023-12-07T11:40:40;13;10;
64627;PMS5003;68467;50.960;0.314;2023-12-07T11:43:07;9;9;
64627;PMS5003;68467;50.960;0.314;2023-12-07T11:45:46;12;10;
64627;PMS5003;68467;50.960;0.314;2023-12-07T11:48:15;12;11;
64627;PMS5003;68467;50.960;0.314;2023-12-07T11:50:59;9;9;
64627;PMS5003;68467;50.960;0.314;2023-12-07T11:53:28;11;11;
64627;PMS5003;68467;50.960;0.314;2023-12-07T11:55:57;9;8;
64627;PMS5003;68467;50.960;0.314;2023-12-07T11:58:26;10;9;
64627;PMS5003;68467;50.960;0.314;2023-12-07T12:00:54;10;10;
64627;PMS5003;68467;50.960;0.314;2023-12-07T12:03:21;12;11;
64627;PMS5003;68467;50.960;0.314;2023-12-07T12:05:49;10;9;
64627;PMS5003;68467;50.960;0.314;2023-12-07T12:08:16;11;11;
64627;PMS5003;68467;50.960;0.314;2023-12-07T12:10:45;7;7;
64627;PMS5003;68467;50.960;0.314;2023-12-07T12:13:13;9;8;
64627;PMS5003;68467;50.960;0.314;2023-12-07T12:15:42;11;11;
64627;PMS5003;68467;50.960;0.314;2023-12-07T12:18:09;7;7;
64627;PMS5003;68467;50.960;0.314;2023-12-07T12:20:37;9;9;
64627;PMS5003;68467;50.960;0.314;2023-12-07T12:23:04;8;8;
64627;PMS5003;68467;50.960;0.314;2023-12-07T12:25:32;8;7;
64627;PMS5003;68467;50.960;0.314;2023-12-07T12:28:02;10;9;
64627;PMS5003;68467;50.960;0.314;2023-12-07T12:30:31;9;9;
64627;PMS5003;68467;50.960;0.314;2023-12-07T12:32:59;9;9;
64627;PMS5003;68467;50.960;0.314;2023-12-07T12:35:26;9;9;
64627;PMS5003;68467;50.960;0.314;2023-12-07T12:37:55;7;7;
64627;PMS5003;68467;50.960;0.314;2023-12-07T12:40:22;7;7;
64627;PMS5003;68467;50.960;0.314;2023-12-07T12:42:53;8;8;
64627;PMS5003;68467;50.960;0.314;2023-12-07T12:45:20;9;9;
64627;PMS5003;68467;50.960;0.314;2023-12-07T12:47:48;8;8;
64627;PMS5003;68467;50.960;0.314;2023-12-07T12:50:32;7;7;
64627;PMS5003;68467;50.960;0.314;2023-12-07T12:53:02;8;8;
64627;PMS5003;68467;50.960;0.314;2023-12-07T12:55:31;8;7;
64627;PMS5003;68467;50.960;0.314;2023-12-07T12:57:59;8;8;
64627;PMS5003;68467;50.960;0.314;2023-12-07T13:00:27;9;9;
64627;PMS5003;68467;50.960;0.314;2023-12-07T13:02:55;7;7;
64627;PMS5003;68467;50.960;0.314;2023-12-07T13:05:22;7;7;
64627;PMS5003;68467;50.960;0.314;2023-12-07T13:07:49;7;6;
64627;PMS5003;68467;50.960;0.314;2023-12-07T13:10:16;7;7;
64627;PMS5003;68467;50.960;0.314;2023-12-07T13:12:43;9;7;
64627;PMS5003;68467;50.960;0.314;2023-12-07T13:15:10;9;8;
64627;PMS5003;68467;50.960;0.314;2023-12-07T13:17:40;7;7;
64627;PMS5003;68467;50.960;0.314;2023-12-07T13:20:08;8;8;
64627;PMS5003;68467;50.960;0.314;2023-12-07T13:22:36;12;8;
64627;PMS5003;68467;50.960;0.314;2023-12-07T13:25:05;9;8;
64627;PMS5003;68467;50.960;0.314;2023-12-07T13:27:34;9;8;
64627;PMS5003;68467;50.960;0.314;2023-12-07T13:30:03;9;8;
64627;PMS5003;68467;50.960;0.314;2023-12-07T13:32:31;10;9;
64627;PMS5003;68467;50.960;0.314;2023-12-07T13:34:58;7;7;
64627;PMS5003;68467;50.960;0.314;2023-12-07T13:37:26;8;8;
64627;PMS5003;68467;50.960;0.314;2023-12-07T13:39:54;9;9;
64627;PMS5003;68467;50.960;0.314;2023-12-07T13:42:21;9;9;
64627;PMS5003;68467;50.960;0.314;2023-12-07T13:44:50;8;8;
64627;PMS5003;68467;50.960;0.314;2023-12-07T13:47:17;10;9;
64627;PMS5003;68467;50.960;0.314;2023-12-07T13:49:44;9;9;
64627;PMS5003;68467;50.960;0.314;2023-12-07T13:52:11;10;9;
64627;PMS5003;68467;50.960;0.314;2023-12-07T13:54:39;9;8;
64627;PMS5003;68467;50.960;0.314;2023-12-07T13:57:06;11;9;
64627;PMS5003;68467;50.960;0.314;2023-12-07T13:59:33;10;10;
64627;PMS5003;68467;50.960;0.314;2023-12-07T14:02:00;10;8;
64627;PMS5003;68467;50.960;0.314;2023-12-07T14:04:27;8;8;
64627;PMS5003;68467;50.960;0.314;2023-12-07T14:07:06;9;8;
64627;PMS5003;68467;50.960;0.314;2023-12-07T14:09:34;9;9;
64627;PMS5003;68467;50.960;0.314;2023-12-07T14:12:01;11;8;
64627;PMS5003;68467;50.960;0.314;2023-12-07T14:14:29;10;9;
64627;PMS5003;68467;50.960;0.314;2023-12-07T14:16:56;12;12;
64627;PMS5003;68467;50.960;0.314;2023-12-07T14:19:24;10;10;
64627;PMS5003;68467;50.960;0.314;2023-12-07T14:21:53;11;10;
64627;PMS5003;68467;50.960;0.314;2023-12-07T14:24:20;11;11;
64627;PMS5003;68467;50.960;0.314;2023-12-07T14:26:47;13;11;
64627;PMS5003;68467;50.960;0.314;2023-12-07T14:29:15;15;11;
64627;PMS5003;68467;50.960;0.314;2023-12-07T14:31:43;15;14;
64627;PMS5003;68467;50.960;0.314;2023-12-07T14:34:10;12;12;
64627;PMS5003;68467;50.960;0.314;2023-12-07T14:36:37;16;14;
64627;PMS5003;68467;50.960;0.314;2023-12-07T14:39:05;15;12;
64627;PMS5003;68467;50.960;0.314;2023-12-07T14:41:32;12;12;
64627;PMS5003;68467;50.960;0.314;2023-12-07T14:43:59;18;15;
64627;PMS5003;68467;50.960;0.314;2023-12-07T14:46:27;11;11;
64627;PMS5003;68467;50.960;0.314;2023-12-07T14:48:54;11;11;
64627;PMS5003;68467;50.960;0.314;2023-12-07T14:51:21;10;10;
64627;PMS5003;68467;50.960;0.314;2023-12-07T14:53:49;12;11;
64627;PMS5003;68467;50.960;0.314;2023-12-07T14:56:16;12;11;
64627;PMS5003;68467;50.960;0.314;2023-12-07T14:58:43;11;11;
64627;PMS5003;68467;50.960;0.314;2023-12-07T15:01:10;12;11;
64627;PMS5003;68467;50.960;0.314;2023-12-07T15:03:37;11;10;
64627;PMS5003;68467;50.960;0.314;2023-12-07T15:06:05;13;12;
64627;PMS5003;68467;50.960;0.314;2023-12-07T15:08:33;11;11;
64627;PMS5003;68467;50.960;0.314;2023-12-07T15:11:00;13;13;
64627;PMS5003;68467;50.960;0.314;2023-12-07T15:13:28;11;11;
64627;PMS5003;68467;50.960;0.314;2023-12-07T15:15:54;12;11;
64627;PMS5003;68467;50.960;0.314;2023-12-07T15:18:22;11;11;
64627;PMS5003;68467;50.960;0.314;2023-12-07T15:20:49;10;10;
64627;PMS5003;68467;50.960;0.314;2023-12-07T15:23:16;15;13;
64627;PMS5003;68467;50.960;0.314;2023-12-07T15:25:43;10;10;
64627;PMS5003;68467;50.960;0.314;2023-12-07T15:28:10;12;11;
64627;PMS5003;68467;50.960;0.314;2023-12-07T15:30:37;11;11;
64627;PMS5003;68467;50.960;0.314;2023-12-07T15:33:05;11;11;
64627;PMS5003;68467;50.960;0.314;2023-12-07T15:35:32;13;12;
64627;PMS5003;68467;50.960;0.314;2023-12-07T15:37:59;14;14;
64627;PMS5003;68467;50.960;0.314;2023-12-07T15:40:26;15;10;
64627;PMS5003;68467;50.960;0.314;2023-12-07T15:42:55;12;11;
64627;PMS5003;68467;50.960;0.314;2023-12-07T15:45:22;16;15;
64627;PMS5003;68467;50.960;0.314;2023-12-07T15:47:49;15;13;
64627;PMS5003;68467;50.960;0.314;2023-12-07T15:50:17;12;12;
64627;PMS5003;68467;50.960;0.314;2023-12-07T15:52:44;11;11;
64627;PMS5003;68467;50.960;0.314;2023-12-07T15:55:12;15;14;
64627;PMS5003;68467;50.960;0.314;2023-12-07T15:57:38;10;9;
64627;PMS5003;68467;50.960;0.314;2023-12-07T16:00:06;10;10;
64627;PMS5003;68467;50.960;0.314;2023-12-07T16:02:34;10;10;
64627;PMS5003;68467;50.960;0.314;2023-12-07T16:05:02;12;12;
64627;PMS5003;68467;50.960;0.314;2023-12-07T16:07:30;11;11;
64627;PMS5003;68467;50.960;0.314;2023-12-07T16:09:57;11;11;
64627;PMS5003;68467;50.960;0.314;2023-12-07T16:12:24;11;11;
64627;PMS5003;68467;50.960;0.314;2023-12-07T16:14:52;13;10;
64627;PMS5003;68467;50.960;0.314;2023-12-07T16:17:19;10;9;
64627;PMS5003;68467;50.960;0.314;2023-12-07T16:19:46;10;10;
64627;PMS5003;68467;50.960;0.314;2023-12-07T16:22:14;10;10;
64627;PMS5003;68467;50.960;0.314;2023-12-07T16:24:41;11;10;
64627;PMS5003;68467;50.960;0.314;2023-12-07T16:27:10;9;9;
64627;PMS5003;68467;50.960;0.314;2023-12-07T16:29:37;9;8;
64627;PMS5003;68467;50.960;0.314;2023-12-07T16:32:05;10;8;